Time;durP1;ratioP1;P1;durP2;ratioP2;P2;SDS_P1;SDS_P2;PMS_P1;PMS_P2;Temp;Humidity;BMP_temperature;BMP_pressure;BME280_temperature;BME280_humidity;BME280_pressure;Samples;Min_cycle;Max_cycle;Signal;HPM_P1;HPM_P2
2021/12/15 00:01:57;;;;;;;52.08;36.33;;;9.80;93.50;;;;;;5006047;28;20061;-70
2021/12/15 00:04:25;;;;;;;59.00;39.72;;;9.90;93.50;;;;;;5002405;28;20083;-71
2021/12/15 00:06:55;;;;;;;60.92;38.35;;;9.80;93.40;;;;;;5019144;28;20018;-74
2021/12/15 00:09:22;;;;;;;59.47;37.42;;;9.80;93.40;;;;;;5013259;28;20098;-71
2021/12/15 00:11:48;;;;;;;60.47;39.45;;;9.80;93.50;;;;;;5015959;28;20227;-72
2021/12/15 00:14:19;;;;;;;58.40;38.30;;;9.80;93.40;;;;;;5014207;28;20066;-72
2021/12/15 00:16:47;;;;;;;55.10;36.53;;;9.80;93.50;;;;;;5027468;28;20058;-73
2021/12/15 00:19:15;;;;;;;55.60;38.33;;;9.80;93.50;;;;;;5009093;28;20034;-72
2021/12/15 00:21:42;;;;;;;56.78;38.20;;;9.80;93.50;;;;;;5005312;28;20018;-70
2021/12/15 00:24:09;;;;;;;62.80;40.17;;;9.80;93.50;;;;;;5013265;28;20086;-71
2021/12/15 00:26:37;;;;;;;58.33;37.88;;;9.80;93.50;;;;;;5011716;28;20038;-72
2021/12/15 00:29:05;;;;;;;62.80;40.10;;;9.80;93.60;;;;;;5008651;28;20015;-72
2021/12/15 00:31:32;;;;;;;60.50;37.85;;;9.80;93.60;;;;;;5020793;28;20029;-70
2021/12/15 00:34:01;;;;;;;61.17;39.33;;;9.80;93.60;;;;;;5014917;28;20033;-72
2021/12/15 00:36:28;;;;;;;57.63;37.92;;;9.80;93.60;;;;;;5030813;28;20022;-71
2021/12/15 00:38:55;;;;;;;58.30;38.75;;;9.80;93.60;;;;;;5019264;28;20010;-72
2021/12/15 00:41:27;;;;;;;56.45;38.35;;;9.80;93.60;;;;;;5022106;28;20026;-72
2021/12/15 00:43:54;;;;;;;63.40;39.63;;;9.80;93.60;;;;;;5018675;28;20026;-72
2021/12/15 00:46:27;;;;;;;55.75;36.60;;;9.80;93.60;;;;;;5020409;28;20018;-71
2021/12/15 00:48:59;;;;;;;58.70;38.17;;;9.80;93.60;;;;;;5022240;28;20085;-71
2021/12/15 00:51:27;;;;;;;57.85;38.65;;;9.80;93.60;;;;;;5019228;28;20034;-70
2021/12/15 00:53:54;;;;;;;59.08;37.42;;;9.80;93.60;;;;;;5025146;28;20033;-71
2021/12/15 00:56:24;;;;;;;61.13;37.95;;;9.80;93.60;;;;;;5007084;28;20351;-73
2021/12/15 00:58:50;;;;;;;61.67;39.33;;;9.80;93.60;;;;;;5021137;28;20050;-72
2021/12/15 01:01:17;;;;;;;57.13;37.97;;;9.80;93.60;;;;;;5023673;28;20037;-72
2021/12/15 01:03:44;;;;;;;57.85;37.60;;;9.80;93.70;;;;;;5018883;28;20078;-72
2021/12/15 01:06:12;;;;;;;64.40;40.58;;;9.70;93.70;;;;;;5014900;28;20090;-71
2021/12/15 01:08:46;;;;;;;58.53;37.50;;;9.70;93.80;;;;;;5019229;28;20014;-72
2021/12/15 01:19:51;;;;;;;63.95;37.08;;;9.80;93.90;;;;;;5023674;28;20049;-72
2021/12/15 01:22:33;;;;;;;55.42;34.92;;;9.80;93.90;;;;;;5022504;28;20057;-73
2021/12/15 01:25:09;;;;;;;62.08;36.47;;;9.70;93.90;;;;;;5018211;28;20038;-72
2021/12/15 01:27:37;;;;;;;63.22;36.58;;;9.70;93.90;;;;;;5015396;28;20030;-72
2021/12/15 01:30:05;;;;;;;59.38;36.38;;;9.80;93.90;;;;;;5017914;28;20053;-73
2021/12/15 01:32:31;;;;;;;64.28;38.22;;;9.70;93.90;;;;;;5018416;28;20046;-72
2021/12/15 01:34:58;;;;;;;62.95;39.22;;;9.80;93.90;;;;;;5026426;28;20047;-71
2021/12/15 01:37:24;;;;;;;62.92;37.55;;;9.70;94.00;;;;;;5023873;28;20021;-71
2021/12/15 01:39:54;;;;;;;63.15;37.65;;;9.70;93.90;;;;;;5012355;28;20026;-72
2021/12/15 01:42:22;;;;;;;60.75;37.08;;;9.70;94.00;;;;;;5017207;28;20034;-72
2021/12/15 01:47:34;;;;;;;63.88;38.30;;;9.70;94.00;;;;;;5008006;28;20033;-71
2021/12/15 01:50:01;;;;;;;64.03;38.70;;;9.70;94.00;;;;;;5016297;28;20022;-71
2021/12/15 01:52:34;;;;;;;63.47;36.85;;;9.70;94.00;;;;;;5018908;28;20023;-71
2021/12/15 01:55:10;;;;;;;59.10;34.42;;;9.80;94.00;;;;;;5023178;28;20061;-72
2021/12/15 01:57:38;;;;;;;62.15;37.83;;;9.80;94.00;;;;;;5013595;28;20163;-70
2021/12/15 02:00:16;;;;;;;59.35;36.85;;;9.70;94.00;;;;;;5019414;28;20023;-72
2021/12/15 02:02:43;;;;;;;63.72;38.60;;;9.80;94.00;;;;;;5021746;28;20022;-71
2021/12/15 02:05:10;;;;;;;63.10;37.83;;;9.80;94.00;;;;;;5020825;28;20094;-72
2021/12/15 02:07:37;;;;;;;64.25;39.17;;;9.70;94.00;;;;;;5017604;28;20033;-71
2021/12/15 02:10:06;;;;;;;64.50;38.45;;;9.70;94.00;;;;;;5013985;28;20042;-72
2021/12/15 02:12:37;;;;;;;57.85;35.65;;;9.70;94.00;;;;;;5015914;28;20210;-71
2021/12/15 02:15:17;;;;;;;62.63;38.40;;;9.70;94.00;;;;;;5033930;28;20043;-71
2021/12/15 02:17:44;;;;;;;65.72;39.63;;;9.70;94.10;;;;;;5013410;28;20027;-72
2021/12/15 02:20:12;;;;;;;61.60;38.90;;;9.70;94.00;;;;;;5017490;28;20025;-72
2021/12/15 02:22:39;;;;;;;57.70;36.83;;;9.70;94.10;;;;;;5020121;28;20082;-71
2021/12/15 02:25:09;;;;;;;63.00;38.00;;;9.70;94.00;;;;;;5016187;28;20106;-73
2021/12/15 02:27:35;;;;;;;63.13;37.20;;;9.70;94.00;;;;;;5019997;28;20026;-73
2021/12/15 02:30:22;;;;;;;65.88;39.40;;;9.80;94.00;;;;;;5015951;28;20054;-72
2021/12/15 02:33:24;;;;;;;61.47;37.85;;;9.80;93.90;;;;;;5011788;28;20022;-70
2021/12/15 02:38:42;;;;;;;57.25;36.05;;;9.70;93.90;;;;;;5019143;28;20122;-72
2021/12/15 02:41:20;;;;;;;63.63;38.63;;;9.70;93.80;;;;;;5024280;28;20026;-71
2021/12/15 02:43:58;;;;;;;61.28;37.97;;;9.80;93.90;;;;;;5013367;28;20049;-70
2021/12/15 02:46:25;;;;;;;57.63;36.05;;;9.70;93.90;;;;;;5010648;28;20086;-72
2021/12/15 02:48:51;;;;;;;59.75;35.97;;;9.80;94.00;;;;;;5012814;28;20033;-72
2021/12/15 02:51:18;;;;;;;58.55;36.17;;;9.80;94.00;;;;;;5016136;28;20022;-73
2021/12/15 02:53:44;;;;;;;56.50;35.20;;;9.80;94.00;;;;;;5013023;28;20027;-72
2021/12/15 02:56:10;;;;;;;56.58;34.95;;;9.80;94.00;;;;;;5005899;28;20045;-73
2021/12/15 02:58:38;;;;;;;60.38;36.13;;;9.80;94.00;;;;;;5012698;28;20018;-72
2021/12/15 03:01:16;;;;;;;59.22;36.28;;;9.80;94.00;;;;;;5018525;28;20082;-72
2021/12/15 03:06:22;;;;;;;60.08;36.47;;;9.80;94.00;;;;;;5022391;28;20014;-72
2021/12/15 03:16:43;;;;;;;67.57;36.90;;;9.80;93.90;;;;;;5010796;28;19940;-72
2021/12/15 03:19:10;;;;;;;59.25;34.67;;;9.80;93.90;;;;;;5015257;28;20014;-72
2021/12/15 03:21:36;;;;;;;62.20;37.88;;;9.80;93.90;;;;;;5017829;28;20026;-73
2021/12/15 03:24:13;;;;;;;54.88;35.15;;;9.80;93.90;;;;;;5015979;28;20021;-73
2021/12/15 03:26:49;;;;;;;54.85;35.47;;;9.80;93.80;;;;;;5018869;28;20038;-73
2021/12/15 03:37:26;;;;;;;55.90;33.45;;;9.80;93.90;;;;;;5023301;28;20064;-73
2021/12/15 03:40:04;;;;;;;53.13;33.70;;;9.80;93.90;;;;;;5020611;28;20041;-72
2021/12/15 03:42:41;;;;;;;52.20;34.05;;;9.80;93.90;;;;;;5024405;28;20049;-73
2021/12/15 03:45:17;;;;;;;56.15;34.08;;;9.80;93.90;;;;;;5019165;28;20049;-71
2021/12/15 03:47:46;;;;;;;54.47;35.17;;;9.80;93.90;;;;;;5011876;28;20046;-72
2021/12/15 03:50:15;;;;;;;62.78;36.25;;;9.80;93.90;;;;;;5013255;28;20018;-69
2021/12/15 03:52:42;;;;;;;49.53;32.42;;;9.80;94.00;;;;;;5017349;28;20037;-72
2021/12/15 03:55:09;;;;;;;52.33;34.10;;;9.80;94.00;;;;;;5020407;28;20037;-73
2021/12/15 03:57:35;;;;;;;51.83;32.42;;;9.80;94.00;;;;;;5021265;28;20044;-70
2021/12/15 04:00:05;;;;;;;50.65;30.58;;;9.80;94.00;;;;;;5029439;28;20018;-73
2021/12/15 04:02:31;;;;;;;51.72;31.83;;;9.80;94.00;;;;;;5023575;28;20026;-70
2021/12/15 04:04:56;;;;;;;53.33;31.48;;;9.80;94.00;;;;;;5015172;28;20116;-71
2021/12/15 04:07:22;;;;;;;56.03;32.53;;;9.80;94.10;;;;;;5015282;28;20018;-73
2021/12/15 04:09:50;;;;;;;50.65;30.63;;;9.80;94.10;;;;;;5017932;28;20042;-72
2021/12/15 04:12:16;;;;;;;47.00;28.70;;;9.80;94.10;;;;;;5016884;28;20042;-73
2021/12/15 04:14:53;;;;;;;47.80;31.42;;;9.80;94.10;;;;;;5022353;28;20025;-70
2021/12/15 04:17:26;;;;;;;46.15;29.98;;;9.90;94.10;;;;;;5019711;28;20026;-73
2021/12/15 04:20:03;;;;;;;49.05;30.50;;;9.90;94.10;;;;;;5013734;28;20011;-71
2021/12/15 04:22:28;;;;;;;46.70;28.38;;;9.80;94.20;;;;;;5016910;28;20027;-71
2021/12/15 04:24:56;;;;;;;49.70;29.73;;;9.90;94.20;;;;;;5020365;28;20021;-72
2021/12/15 04:27:22;;;;;;;48.05;30.23;;;9.90;94.30;;;;;;5015941;28;20018;-72
2021/12/15 04:29:49;;;;;;;52.40;30.73;;;9.90;94.20;;;;;;5021746;28;20053;-71
2021/12/15 04:32:25;;;;;;;49.17;31.02;;;9.80;94.20;;;;;;5033097;28;20041;-71
2021/12/15 04:34:51;;;;;;;51.70;31.13;;;9.80;94.20;;;;;;5012165;28;20094;-71
2021/12/15 04:37:17;;;;;;;53.35;31.55;;;9.80;94.30;;;;;;5022972;28;20068;-72
2021/12/15 04:39:43;;;;;;;50.17;30.45;;;9.90;94.30;;;;;;5029033;28;20046;-71
2021/12/15 04:42:09;;;;;;;47.80;31.13;;;9.90;94.30;;;;;;5015644;28;20023;-72
2021/12/15 04:44:35;;;;;;;51.72;32.83;;;9.90;94.30;;;;;;5022346;28;20026;-72
2021/12/15 04:47:08;;;;;;;51.65;32.78;;;9.80;94.30;;;;;;5016024;28;20038;-69
2021/12/15 04:49:47;;;;;;;51.10;29.98;;;9.90;94.30;;;;;;5024896;28;20092;-70
2021/12/15 04:52:16;;;;;;;52.08;33.72;;;9.90;94.30;;;;;;5013746;28;20022;-72
2021/12/15 04:54:43;;;;;;;49.15;30.98;;;9.80;94.20;;;;;;5013185;28;20072;-71
2021/12/15 04:57:10;;;;;;;49.22;31.35;;;9.80;94.30;;;;;;5019987;28;20022;-71
2021/12/15 04:59:36;;;;;;;52.38;33.60;;;9.80;94.30;;;;;;5019256;28;20022;-72
2021/12/15 05:02:04;;;;;;;53.53;33.10;;;9.90;94.20;;;;;;5021079;28;20022;-69
2021/12/15 05:04:30;;;;;;;50.85;32.70;;;9.90;94.30;;;;;;5012990;28;20023;-70
2021/12/15 05:06:55;;;;;;;51.47;33.75;;;9.90;94.30;;;;;;5016256;28;20041;-71
2021/12/15 05:09:21;;;;;;;53.22;33.05;;;9.90;94.30;;;;;;5015758;28;20031;-72
2021/12/15 05:11:49;;;;;;;51.78;31.65;;;9.90;94.30;;;;;;5007723;28;20042;-71
2021/12/15 05:14:15;;;;;;;52.22;32.00;;;10.00;94.30;;;;;;5026355;28;20054;-70
2021/12/15 05:16:40;;;;;;;50.60;31.10;;;9.90;94.20;;;;;;5011636;28;20045;-70
2021/12/15 05:19:07;;;;;;;48.85;32.10;;;9.90;94.20;;;;;;5009285;28;20077;-70
2021/12/15 05:21:33;;;;;;;48.15;30.50;;;9.90;94.20;;;;;;5025492;28;20026;-72
2021/12/15 05:24:08;;;;;;;51.17;32.13;;;9.90;94.20;;;;;;5008122;28;20042;-72
2021/12/15 05:26:34;;;;;;;52.05;31.17;;;9.90;94.20;;;;;;5012071;28;20025;-69
2021/12/15 05:28:59;;;;;;;47.10;29.52;;;9.90;94.20;;;;;;5010030;28;20026;-71
2021/12/15 05:31:25;;;;;;;55.47;32.45;;;9.90;94.20;;;;;;5016409;28;20031;-71
2021/12/15 05:33:51;;;;;;;48.95;32.10;;;9.90;94.20;;;;;;5020142;28;20019;-71
2021/12/15 05:36:17;;;;;;;51.13;32.72;;;9.90;94.20;;;;;;5003122;28;20052;-72
2021/12/15 05:38:42;;;;;;;45.78;32.03;;;9.90;94.30;;;;;;5006653;28;20014;-71
2021/12/15 05:41:08;;;;;;;50.10;33.50;;;9.90;94.20;;;;;;5001577;28;20058;-71
2021/12/15 05:43:34;;;;;;;47.53;31.15;;;9.90;94.20;;;;;;5010916;28;20023;-73
2021/12/15 05:46:00;;;;;;;45.53;30.13;;;9.90;94.20;;;;;;5006431;28;20098;-72
2021/12/15 05:48:25;;;;;;;45.90;31.02;;;9.90;94.20;;;;;;5011801;28;20049;-73
2021/12/15 05:50:52;;;;;;;47.75;31.40;;;9.90;94.10;;;;;;5007464;28;20014;-73
2021/12/15 05:53:18;;;;;;;48.63;31.88;;;9.90;94.10;;;;;;5009568;28;20023;-73
2021/12/15 05:55:44;;;;;;;50.63;31.90;;;9.90;94.10;;;;;;5004646;28;20034;-71
2021/12/15 05:58:10;;;;;;;44.38;30.50;;;9.90;94.00;;;;;;5011988;28;20023;-72
2021/12/15 06:00:38;;;;;;;51.78;32.20;;;9.80;94.00;;;;;;5016153;28;20053;-72
2021/12/15 06:03:05;;;;;;;45.90;30.20;;;9.90;94.10;;;;;;5011292;28;20191;-72
2021/12/15 06:05:31;;;;;;;43.83;30.83;;;9.90;94.10;;;;;;5014112;28;20031;-71
2021/12/15 06:07:57;;;;;;;46.40;31.80;;;9.90;94.00;;;;;;5024660;28;20045;-72
2021/12/15 06:10:26;;;;;;;49.33;32.05;;;9.90;94.00;;;;;;5021788;28;20070;-71
2021/12/15 06:12:53;;;;;;;43.35;29.42;;;9.80;93.90;;;;;;5011897;28;20029;-71
2021/12/15 06:15:22;;;;;;;49.42;31.50;;;9.80;93.90;;;;;;5012155;28;20054;-70
2021/12/15 06:17:57;;;;;;;47.80;31.02;;;9.90;93.90;;;;;;5019365;28;20022;-72
2021/12/15 06:20:24;;;;;;;47.38;31.42;;;9.90;93.90;;;;;;5034279;28;20041;-70
2021/12/15 06:22:52;;;;;;;47.50;33.00;;;9.90;93.90;;;;;;5009964;28;20102;-71
2021/12/15 06:25:18;;;;;;;47.95;31.13;;;9.90;93.80;;;;;;5010625;28;20224;-72
2021/12/15 06:27:44;;;;;;;49.75;32.40;;;9.90;93.80;;;;;;5009665;28;20030;-72
2021/12/15 06:30:10;;;;;;;47.05;31.50;;;9.90;93.90;;;;;;5021530;28;20019;-70
2021/12/15 06:32:35;;;;;;;45.88;30.98;;;9.90;93.90;;;;;;5010234;28;20105;-70
2021/12/15 06:35:02;;;;;;;45.42;30.05;;;9.90;93.90;;;;;;5012914;28;20046;-73
2021/12/15 06:37:28;;;;;;;45.10;30.48;;;9.90;94.00;;;;;;5024806;28;20014;-73
2021/12/15 06:39:54;;;;;;;46.45;31.80;;;9.90;93.90;;;;;;5013827;28;20033;-72
2021/12/15 06:42:19;;;;;;;47.53;31.80;;;9.90;94.00;;;;;;5014884;28;20023;-71
2021/12/15 06:44:46;;;;;;;45.95;30.42;;;9.90;93.80;;;;;;5018573;28;20051;-71
2021/12/15 06:58:24;;;;;;;49.10;32.63;;;9.90;93.90;;;;;;5010759;28;20090;-72
2021/12/15 07:00:56;;;;;;;42.70;28.48;;;9.90;94.00;;;;;;5017424;28;20026;-70
2021/12/15 07:03:23;;;;;;;47.33;31.33;;;10.00;94.00;;;;;;5011233;28;20051;-72
2021/12/15 07:05:52;;;;;;;45.90;30.83;;;9.90;94.00;;;;;;5010115;28;20034;-71
2021/12/15 07:08:19;;;;;;;48.83;32.65;;;9.90;94.00;;;;;;5006356;28;20018;-71
2021/12/15 07:10:50;;;;;;;45.67;29.75;;;9.90;94.00;;;;;;5010690;28;20032;-70
2021/12/15 07:13:17;;;;;;;45.05;30.13;;;9.90;94.00;;;;;;5019278;28;20029;-72
2021/12/15 07:15:45;;;;;;;48.40;32.50;;;9.90;94.00;;;;;;5017954;28;20098;-70
2021/12/15 07:18:13;;;;;;;44.38;30.65;;;9.90;93.90;;;;;;5019387;28;20041;-71
2021/12/15 07:20:50;;;;;;;46.10;30.67;;;9.90;94.00;;;;;;5024554;28;20018;-72
2021/12/15 07:23:19;;;;;;;43.75;28.75;;;9.90;94.00;;;;;;5014757;28;20026;-71
2021/12/15 07:25:47;;;;;;;46.97;32.67;;;9.90;94.00;;;;;;5012890;28;20030;-71
2021/12/15 07:28:14;;;;;;;41.72;28.98;;;9.90;93.90;;;;;;5018156;28;20054;-72
2021/12/15 07:30:41;;;;;;;45.17;29.85;;;9.90;93.90;;;;;;5014105;28;20081;-72
2021/12/15 07:33:08;;;;;;;42.47;30.17;;;10.00;93.90;;;;;;5017501;28;20019;-71
2021/12/15 07:35:35;;;;;;;43.15;28.88;;;10.00;94.00;;;;;;5014555;28;20041;-71
2021/12/15 07:38:00;;;;;;;42.15;28.92;;;9.90;93.90;;;;;;5021906;28;20038;-72
2021/12/15 07:40:27;;;;;;;43.55;29.00;;;9.90;93.90;;;;;;5029362;28;20031;-72
2021/12/15 07:43:06;;;;;;;41.70;27.85;;;10.00;93.90;;;;;;5012350;28;20045;-72
2021/12/15 07:45:35;;;;;;;43.40;29.48;;;9.90;93.90;;;;;;5015573;28;20022;-71
2021/12/15 07:48:03;;;;;;;46.67;30.42;;;10.00;94.00;;;;;;5018716;28;20018;-71
2021/12/15 07:50:30;;;;;;;39.85;27.17;;;10.00;93.90;;;;;;5005938;28;20103;-70
2021/12/15 07:52:57;;;;;;;38.80;27.48;;;9.90;93.80;;;;;;5005825;28;20022;-72
2021/12/15 07:55:25;;;;;;;41.60;29.23;;;10.00;93.80;;;;;;5008469;28;20031;-70
2021/12/15 07:57:52;;;;;;;40.38;28.20;;;10.00;93.80;;;;;;5006836;28;20211;-72
2021/12/15 08:00:18;;;;;;;39.28;26.85;;;10.00;93.70;;;;;;5016779;28;20006;-72
2021/12/15 08:02:45;;;;;;;39.08;27.90;;;10.00;93.70;;;;;;5009035;28;20018;-72
2021/12/15 08:05:10;;;;;;;40.33;27.42;;;10.00;93.70;;;;;;5005577;28;20046;-71
2021/12/15 08:07:36;;;;;;;37.00;25.77;;;10.00;93.70;;;;;;5014170;28;20022;-72
2021/12/15 08:10:06;;;;;;;43.28;28.40;;;10.00;93.60;;;;;;5011733;28;20115;-72
2021/12/15 08:12:32;;;;;;;36.78;25.98;;;10.00;93.60;;;;;;5019813;28;20038;-71
2021/12/15 08:14:58;;;;;;;37.90;25.77;;;10.00;93.60;;;;;;5012614;28;20042;-71
2021/12/15 08:17:23;;;;;;;39.30;26.42;;;10.00;93.60;;;;;;5015423;28;20052;-71
2021/12/15 08:19:49;;;;;;;39.58;26.27;;;10.00;93.60;;;;;;5020510;28;20026;-72
2021/12/15 08:22:15;;;;;;;38.13;27.02;;;10.00;93.60;;;;;;5014079;28;20030;-73
2021/12/15 08:24:40;;;;;;;39.53;26.65;;;10.00;93.50;;;;;;5009455;28;20086;-72
2021/12/15 08:27:06;;;;;;;37.50;26.98;;;10.00;93.50;;;;;;5012402;28;20057;-72
2021/12/15 08:29:32;;;;;;;41.30;27.15;;;10.00;93.40;;;;;;5023527;28;20014;-71
2021/12/15 08:31:57;;;;;;;41.35;26.67;;;10.00;93.50;;;;;;5032993;28;20035;-71
2021/12/15 08:34:23;;;;;;;36.63;25.67;;;10.00;93.40;;;;;;5013071;28;20038;-71
2021/12/15 08:36:51;;;;;;;42.03;28.52;;;10.00;93.40;;;;;;5018550;28;20052;-72
2021/12/15 08:39:18;;;;;;;35.50;25.95;;;10.10;93.30;;;;;;5021845;28;20046;-69
2021/12/15 08:41:45;;;;;;;38.83;25.88;;;10.10;93.30;;;;;;5015620;28;20049;-71
2021/12/15 08:44:11;;;;;;;37.38;26.50;;;10.10;93.30;;;;;;5023880;28;20029;-71
2021/12/15 08:46:42;;;;;;;38.75;26.85;;;10.10;93.30;;;;;;5013787;28;20118;-72
2021/12/15 08:49:13;;;;;;;40.92;26.85;;;10.10;93.20;;;;;;5020487;28;20023;-70
2021/12/15 08:51:39;;;;;;;42.03;27.73;;;10.10;93.20;;;;;;5016865;28;20038;-72
2021/12/15 08:54:08;;;;;;;36.60;25.38;;;10.10;93.20;;;;;;5027967;28;20018;-71
2021/12/15 08:56:35;;;;;;;37.38;25.50;;;10.10;93.10;;;;;;5018716;28;20182;-72
2021/12/15 08:59:06;;;;;;;41.15;27.27;;;10.10;93.10;;;;;;5019993;28;20038;-72
2021/12/15 09:01:32;;;;;;;36.20;26.95;;;10.10;93.00;;;;;;5021568;28;20024;-72
2021/12/15 09:03:58;;;;;;;35.80;25.27;;;10.20;92.90;;;;;;5024037;28;20061;-71
2021/12/15 09:06:25;;;;;;;35.50;24.67;;;10.20;92.90;;;;;;5015706;28;20034;-71
2021/12/15 09:08:51;;;;;;;34.22;24.42;;;10.20;92.90;;;;;;5013868;28;20038;-71
2021/12/15 09:11:20;;;;;;;30.70;22.75;;;10.20;92.80;;;;;;5013061;28;20036;-72
2021/12/15 09:13:50;;;;;;;33.47;22.60;;;10.30;92.80;;;;;;5015105;28;20034;-72
2021/12/15 09:16:16;;;;;;;31.10;22.50;;;10.30;92.70;;;;;;5015302;28;20061;-71
2021/12/15 09:18:44;;;;;;;30.15;21.08;;;10.30;92.60;;;;;;5007551;28;20514;-70
2021/12/15 09:21:12;;;;;;;30.70;22.38;;;10.30;92.50;;;;;;5009096;28;20019;-70
2021/12/15 09:23:39;;;;;;;33.17;23.17;;;10.30;92.50;;;;;;5013420;28;20038;-68
2021/12/15 09:26:06;;;;;;;30.65;20.45;;;10.30;92.40;;;;;;5013401;28;20027;-70
2021/12/15 09:28:32;;;;;;;31.73;21.55;;;10.30;92.40;;;;;;5014463;28;20097;-70
2021/12/15 09:30:59;;;;;;;32.50;22.05;;;10.30;92.30;;;;;;5008727;28;20031;-69
2021/12/15 09:33:29;;;;;;;28.83;20.75;;;10.30;92.40;;;;;;5011413;28;20022;-70
2021/12/15 09:35:56;;;;;;;33.00;22.30;;;10.30;92.20;;;;;;5012466;28;20034;-70
2021/12/15 09:38:22;;;;;;;30.02;22.73;;;10.40;92.00;;;;;;5015042;28;20050;-71
2021/12/15 09:40:54;;;;;;;30.85;21.23;;;10.30;92.10;;;;;;5012151;28;20018;-69
2021/12/15 09:43:20;;;;;;;31.25;21.70;;;10.30;92.00;;;;;;5020626;28;20026;-73
2021/12/15 09:45:52;;;;;;;30.58;21.70;;;10.40;92.10;;;;;;5020631;28;20153;-72
2021/12/15 10:05:02;;;;;;;27.65;20.98;;;10.50;91.80;;;;;;5019109;28;20024;-69
2021/12/15 10:11:14;;;;;;;30.02;21.90;;;10.60;91.70;;;;;;5010967;28;20023;-73
2021/12/15 10:19:40;;;;;;;29.02;21.67;;;10.60;91.20;;;;;;5019667;28;20050;-73
2021/12/15 10:22:41;;;;;;;27.95;20.85;;;10.70;91.10;;;;;;5010826;28;20027;-71
2021/12/15 10:25:18;;;;;;;30.83;22.40;;;10.70;91.10;;;;;;5001470;28;20030;-72
2021/12/15 10:28:01;;;;;;;29.17;21.52;;;10.60;90.90;;;;;;5012763;28;20110;-70
2021/12/15 10:30:27;;;;;;;27.83;20.40;;;10.70;90.90;;;;;;5018071;28;20030;-73
2021/12/15 10:32:55;;;;;;;29.17;21.25;;;10.70;91.10;;;;;;5019916;28;20098;-72
2021/12/15 10:35:31;;;;;;;25.20;20.58;;;10.70;90.90;;;;;;5028057;28;20038;-73
2021/12/15 10:38:18;;;;;;;30.58;21.40;;;10.70;90.90;;;;;;5014058;28;20043;-70
2021/12/15 10:40:47;;;;;;;31.77;20.88;;;10.70;90.90;;;;;;5011050;28;20033;-72
2021/12/15 10:43:15;;;;;;;28.45;21.45;;;10.70;90.70;;;;;;5011998;28;20038;-70
2021/12/15 10:45:45;;;;;;;28.17;20.50;;;10.70;90.60;;;;;;5009419;28;20026;-72
2021/12/15 10:48:23;;;;;;;28.25;22.17;;;10.70;90.40;;;;;;5017699;28;20041;-71
2021/12/15 10:50:49;;;;;;;29.02;21.23;;;10.80;90.50;;;;;;5016468;28;20022;-72
2021/12/15 10:53:30;;;;;;;27.42;21.20;;;10.80;90.50;;;;;;5024502;28;20049;-71
2021/12/15 10:55:56;;;;;;;31.80;22.17;;;10.90;90.50;;;;;;5028024;28;20061;-72
2021/12/15 10:58:37;;;;;;;27.33;20.55;;;10.80;90.50;;;;;;5020697;28;20030;-67
2021/12/15 11:01:25;;;;;;;29.27;21.85;;;10.90;90.20;;;;;;5012337;28;20045;-71
2021/12/15 11:03:51;;;;;;;27.15;19.33;;;10.90;90.00;;;;;;5016341;28;20022;-71
2021/12/15 11:06:20;;;;;;;27.17;19.90;;;10.90;90.10;;;;;;5023659;28;20114;-72
2021/12/15 11:08:46;;;;;;;27.38;19.50;;;11.00;89.90;;;;;;5012763;28;20066;-70
2021/12/15 11:11:24;;;;;;;25.38;19.90;;;11.00;89.90;;;;;;5013247;28;20078;-71
2021/12/15 11:13:50;;;;;;;27.95;21.08;;;11.10;89.70;;;;;;5021529;28;20065;-70
2021/12/15 11:16:15;;;;;;;29.80;21.77;;;11.10;89.80;;;;;;5014393;28;20094;-68
2021/12/15 11:18:41;;;;;;;27.45;21.27;;;11.10;89.70;;;;;;5012068;28;20062;-70
2021/12/15 11:21:08;;;;;;;25.50;20.15;;;11.10;89.50;;;;;;5008682;28;20025;-70
2021/12/15 11:23:35;;;;;;;26.08;20.25;;;11.20;89.60;;;;;;5012243;28;20588;-72
2021/12/15 11:26:09;;;;;;;29.63;20.65;;;11.10;89.40;;;;;;5012083;28;20015;-71
2021/12/15 11:28:45;;;;;;;28.23;20.98;;;11.10;89.20;;;;;;5024384;28;20045;-68
2021/12/15 11:31:14;;;;;;;29.15;20.98;;;11.10;89.20;;;;;;5005827;28;20032;-71
2021/12/15 11:33:45;;;;;;;27.15;20.40;;;11.10;89.20;;;;;;5019526;28;20041;-71
2021/12/15 11:36:12;;;;;;;27.50;20.80;;;11.20;89.30;;;;;;5020687;28;20026;-71
2021/12/15 11:38:43;;;;;;;29.52;22.40;;;11.10;89.10;;;;;;5017980;28;20057;-72
2021/12/15 11:41:21;;;;;;;29.15;22.10;;;11.10;89.20;;;;;;5006285;28;20037;-70
2021/12/15 11:43:53;;;;;;;28.88;21.90;;;11.10;89.20;;;;;;5009356;28;20026;-67
2021/12/15 11:46:30;;;;;;;29.02;21.13;;;11.10;89.20;;;;;;5018694;28;20010;-69
2021/12/15 11:49:01;;;;;;;32.40;23.02;;;11.10;89.10;;;;;;5017532;28;20022;-72
2021/12/15 11:51:36;;;;;;;28.15;20.92;;;11.10;88.80;;;;;;5020446;28;20021;-70
2021/12/15 11:54:11;;;;;;;28.60;21.27;;;11.10;89.20;;;;;;5014152;28;20030;-72
2021/12/15 11:56:37;;;;;;;29.15;21.60;;;11.10;88.90;;;;;;5011747;28;20094;-72
2021/12/15 11:59:22;;;;;;;29.52;22.48;;;11.10;88.90;;;;;;5028835;28;20018;-71
2021/12/15 12:01:52;;;;;;;30.35;21.60;;;11.10;88.70;;;;;;5011957;28;20034;-68
2021/12/15 12:04:46;;;;;;;28.63;21.63;;;11.10;88.70;;;;;;5009265;28;20042;-71
2021/12/15 12:07:17;;;;;;;28.77;21.67;;;11.20;88.90;;;;;;5009576;28;20105;-72
2021/12/15 12:09:48;;;;;;;28.45;21.42;;;11.20;88.80;;;;;;5008600;28;20042;-72
2021/12/15 12:12:16;;;;;;;29.55;21.23;;;11.10;88.90;;;;;;5012653;28;20029;-71
2021/12/15 12:14:48;;;;;;;33.67;24.92;;;11.20;88.60;;;;;;5019713;28;20038;-71
2021/12/15 12:17:27;;;;;;;32.97;24.20;;;11.20;88.70;;;;;;5017943;28;20033;-71
2021/12/15 12:19:53;;;;;;;31.27;22.95;;;11.20;88.80;;;;;;5012499;28;20046;-71
2021/12/15 12:22:20;;;;;;;31.02;23.15;;;11.20;88.70;;;;;;5008406;28;20041;-72
2021/12/15 12:24:49;;;;;;;32.53;24.42;;;11.10;88.70;;;;;;5011098;28;20042;-72
2021/12/15 12:27:15;;;;;;;31.92;23.63;;;11.10;88.80;;;;;;5016709;28;20043;-70
2021/12/15 12:29:43;;;;;;;31.15;23.95;;;11.10;89.00;;;;;;5013058;28;20018;-72
2021/12/15 12:32:09;;;;;;;30.05;23.35;;;11.10;89.20;;;;;;5011903;28;20038;-71
2021/12/15 12:34:35;;;;;;;31.60;23.45;;;11.00;89.10;;;;;;5027668;28;20018;-67
2021/12/15 12:37:01;;;;;;;29.10;22.60;;;11.10;89.20;;;;;;5014827;28;20061;-71
2021/12/15 12:39:34;;;;;;;32.45;25.90;;;11.10;89.10;;;;;;5014539;28;20039;-70
2021/12/15 12:42:00;;;;;;;27.38;21.77;;;11.10;89.10;;;;;;5039340;28;20026;-71
2021/12/15 12:44:39;;;;;;;32.08;24.02;;;11.10;89.20;;;;;;5014112;28;20021;-71
2021/12/15 12:47:29;;;;;;;34.83;24.45;;;11.00;89.30;;;;;;5008678;28;20047;-71
2021/12/15 12:50:15;;;;;;;31.02;24.67;;;11.10;89.20;;;;;;5011246;28;20110;-68
2021/12/15 13:01:16;;;;;;;32.00;24.27;;;11.10;89.10;;;;;;5010264;28;20047;-71
2021/12/15 13:03:46;;;;;;;32.72;23.90;;;11.00;89.20;;;;;;5004741;28;20023;-72
2021/12/15 13:06:13;;;;;;;30.70;23.27;;;11.00;89.10;;;;;;5005133;28;20018;-72
2021/12/15 13:08:49;;;;;;;34.35;24.83;;;11.00;89.10;;;;;;5003225;28;20030;-72
2021/12/15 13:11:22;;;;;;;34.00;25.17;;;11.00;89.20;;;;;;5006338;28;20034;-70
2021/12/15 13:13:50;;;;;;;32.40;24.90;;;11.10;89.20;;;;;;5011093;28;20418;-72
2021/12/15 13:16:28;;;;;;;32.03;24.77;;;11.10;89.20;;;;;;5004914;28;20102;-72
2021/12/15 13:19:01;;;;;;;31.08;23.73;;;11.10;89.30;;;;;;5004506;28;20030;-72
2021/12/15 13:21:46;;;;;;;32.53;25.48;;;11.10;89.30;;;;;;5006055;28;20030;-72
2021/12/15 13:30:51;;;;;;;31.90;24.70;;;11.10;89.40;;;;;;5005259;28;20057;-71
2021/12/15 13:33:32;;;;;;;31.35;24.55;;;11.10;89.30;;;;;;5005778;28;20041;-71
2021/12/15 13:36:17;;;;;;;34.63;25.70;;;11.00;89.30;;;;;;5017839;28;20043;-72
2021/12/15 13:38:42;;;;;;;36.42;26.15;;;11.00;89.30;;;;;;5034170;28;20057;-71
2021/12/15 13:41:26;;;;;;;34.75;25.88;;;11.00;89.40;;;;;;5021833;28;20027;-72
2021/12/15 13:44:02;;;;;;;36.00;26.08;;;11.00;89.60;;;;;;5004514;28;20031;-71
2021/12/15 13:46:28;;;;;;;33.78;24.55;;;11.00;89.50;;;;;;5007036;28;20035;-71
2021/12/15 13:48:56;;;;;;;34.67;25.52;;;11.00;89.50;;;;;;5006218;28;20029;-71
2021/12/15 13:51:53;;;;;;;36.45;26.55;;;11.00;89.60;;;;;;5009282;28;20098;-71
2021/12/15 13:54:43;;;;;;;34.58;24.60;;;11.00;89.50;;;;;;5017405;28;20026;-71
2021/12/15 13:57:15;;;;;;;33.95;24.67;;;11.00;89.60;;;;;;5009051;28;20034;-72
2021/12/15 13:59:49;;;;;;;35.53;25.52;;;11.00;89.40;;;;;;5009585;28;20037;-71
2021/12/15 14:02:19;;;;;;;34.63;25.75;;;11.00;89.40;;;;;;5009273;28;20032;-70
2021/12/15 14:04:55;;;;;;;32.95;24.73;;;11.00;89.40;;;;;;5011542;28;20030;-71
2021/12/15 14:07:34;;;;;;;34.72;25.88;;;11.00;89.50;;;;;;5008677;28;20065;-70
2021/12/15 14:10:22;;;;;;;32.97;24.77;;;11.00;89.50;;;;;;5018005;28;20029;-72
2021/12/15 14:12:49;;;;;;;32.55;24.48;;;10.90;89.40;;;;;;5013330;28;20216;-72